Pagrindinis puslapis
METAR-TAF:

METAR-TAF

Oro uostai :

Ivano Frankivskas, Ukraina

platuma: 48-53-03N, ilguma: 024-41-10E, Aukštis: 280 m

Dabartinis oras

Ataskaita buvo paskelbta 20 minutes, ne 08:00 UTC
Ramus vėjas
Temperatūra 14°C
Drėgmė 72%
Slėgis 1019 hPa
Matomumas 10 km arba daugiau
nėra debesų žemiau 1500 m ir nėra kamuolinių lietaus debesų

METAR: UKLI 180800Z 00000MPS CAVOK 14/09 Q1019 R28/090070 NOSIG

Laikas: 11:20 (08:20 UTC)

Prognozė

Ataskaita buvo paskelbta 3 valandos ir 19 minutes, ne 05:01 UTC
Prognozė galioja nuo 18 metu 06 UTC su 18 metu 15 UTC
Vėjas 6 kt iš Rytų/Pietryčių
Matomumas 10 km arba daugiau
Su prošvaistėmis ne aukštis 2000 ft
Laikinai
nuo 18 metu 06 UTC su 18 metu 09 UTC
Vėjas 2 kt nuo kintamojo kryptimis
Matomumas: 2100 m
Su prošvaistėmis ne aukštis 1200 ft
rūkana

TAF: UKLI 180501Z 1806/1815 12003MPS 9999 BKN020 TX23/1812Z TN04/1806Z TEMPO 1806/1809 VRB01MPS 2100 BR BKN012

Orai ataskaitas ir orų prognozės (METAR, TAF).

turimą stotys yra geltonos ir raudonos taškus žemėlapyje.

Perkelti pele per norėdami pamatyti stoties vardą.

Tada spustelėkite, norėdami matyti oro stebėjimo ir prognozės.

Norėdami pakeisti žemėlapį: spustelėkite ant žalios mygtukų su juodo kryžiaus žemyn,; žalią mygtuką su brūkšneliu, jei norite nutolinti; arba žalių rodyklių gretimoms žemėlapius.


METAR-TAF: